Time;durP1;ratioP1;P1;durP2;ratioP2;P2;SDS_P1;SDS_P2;PMS_P1;PMS_P2;Temp;Humidity;BMP_temperature;BMP_pressure;BME280_temperature;BME280_humidity;BME280_pressure;Samples;Min_cycle;Max_cycle;Signal;HPM_P1;HPM_P2
2023/12/03 00:02:04;;;;;;;46.78;44.30;;;;;;;3.91;64.22;101788.56;5027175;28;20037;-73
2023/12/03 00:04:30;;;;;;;49.90;46.95;;;;;;;3.92;63.97;101792.91;5019139;28;20153;-72
2023/12/03 00:06:55;;;;;;;48.95;46.38;;;;;;;3.92;63.96;101798.25;5014437;28;20401;-73
2023/12/03 00:09:21;;;;;;;47.35;44.85;;;;;;;3.94;64.44;101798.91;5014300;28;20049;-72
2023/12/03 00:11:46;;;;;;;52.30;49.03;;;;;;;3.94;64.22;101796.25;5028473;28;20080;-74
2023/12/03 00:14:12;;;;;;;46.58;44.08;;;;;;;3.93;64.10;101793.72;5023228;28;20037;-73
2023/12/03 00:16:37;;;;;;;51.15;48.50;;;;;;;3.93;64.03;101799.94;5025817;28;20120;-72
2023/12/03 00:19:03;;;;;;;47.58;45.08;;;;;;;3.94;64.26;101801.59;5011182;28;20564;-72
2023/12/03 00:21:28;;;;;;;49.58;46.72;;;;;;;3.94;64.22;101806.94;5018345;28;20026;-72
2023/12/03 00:23:53;;;;;;;46.97;44.58;;;;;;;3.92;64.36;101808.94;5016032;28;20124;-72
2023/12/03 00:26:19;;;;;;;51.92;48.40;;;;;;;3.92;64.06;101814.28;5022230;28;20478;-73
2023/12/03 00:28:44;;;;;;;51.45;48.60;;;;;;;3.94;64.38;101814.13;5011058;28;20045;-73
2023/12/03 00:31:09;;;;;;;46.17;43.55;;;;;;;3.93;64.09;101810.63;5028947;28;20029;-72
2023/12/03 00:33:35;;;;;;;49.25;46.72;;;;;;;3.95;64.14;101813.13;5028443;28;20041;-73
2023/12/03 00:36:00;;;;;;;53.80;51.00;;;;;;;3.94;64.32;101817.63;5028589;28;20030;-74
2023/12/03 00:38:26;;;;;;;50.78;48.28;;;;;;;3.95;64.19;101816.63;5017526;28;20453;-73
2023/12/03 00:40:51;;;;;;;49.83;46.92;;;;;;;3.95;64.39;101815.78;5024333;28;20084;-73
2023/12/03 00:43:16;;;;;;;47.20;44.92;;;;;;;3.95;64.09;101818.47;5009267;28;20061;-73
2023/12/03 00:45:42;;;;;;;50.88;48.15;;;;;;;3.97;64.40;101819.13;5022275;28;20367;-72
2023/12/03 00:48:07;;;;;;;43.65;41.30;;;;;;;3.95;64.36;101819.28;5033472;28;20041;-74
2023/12/03 00:50:33;;;;;;;46.67;44.40;;;;;;;3.95;64.23;101819.28;5010703;28;20073;-72
2023/12/03 00:52:58;;;;;;;48.45;45.83;;;;;;;3.95;64.15;101813.13;5027137;28;20041;-73
2023/12/03 00:55:24;;;;;;;49.22;46.35;;;;;;;3.96;64.20;101817.47;5034149;28;20040;-73
2023/12/03 00:57:49;;;;;;;46.20;43.95;;;;;;;3.96;64.64;101814.78;5016021;28;20104;-75
2023/12/03 01:00:15;;;;;;;46.65;44.45;;;;;;;3.98;64.39;101821.63;5028154;28;20048;-73
2023/12/03 01:02:41;;;;;;;46.78;44.58;;;;;;;3.98;64.29;101818.09;5028638;28;20050;-74
2023/12/03 01:05:07;;;;;;;53.50;50.45;;;;;;;3.98;64.50;101828.81;5027436;28;20095;-73
2023/12/03 01:07:32;;;;;;;51.58;49.13;;;;;;;3.98;64.24;101826.13;5027817;28;20045;-74
2023/12/03 01:09:57;;;;;;;47.78;45.25;;;;;;;3.98;64.10;101818.97;5011412;28;20025;-73
2023/12/03 01:12:23;;;;;;;45.30;43.17;;;;;;;3.99;64.13;101814.44;5024209;28;20593;-72
2023/12/03 01:14:48;;;;;;;42.42;40.42;;;;;;;3.99;64.19;101820.63;5028696;28;20026;-73
2023/12/03 01:17:14;;;;;;;45.75;43.55;;;;;;;4.02;64.17;101822.09;5011488;28;20095;-73
2023/12/03 01:19:39;;;;;;;50.53;48.17;;;;;;;4.00;64.18;101816.94;5012975;28;20034;-73
2023/12/03 01:22:04;;;;;;;46.22;43.83;;;;;;;4.01;64.08;101820.47;5027547;28;21263;-73
2023/12/03 01:24:30;;;;;;;46.65;44.45;;;;;;;4.01;64.66;101817.78;5025340;28;20478;-73
2023/12/03 01:26:56;;;;;;;48.42;46.03;;;;;;;4.00;64.19;101827.63;5010021;28;20064;-74
2023/12/03 01:29:21;;;;;;;49.50;46.70;;;;;;;4.00;64.52;101838.31;5016316;28;20060;-73
2023/12/03 01:31:46;;;;;;;43.53;41.10;;;;;;;4.00;64.16;101838.31;5013023;28;20108;-72
2023/12/03 01:34:12;;;;;;;57.10;52.83;;;;;;;4.00;64.27;101840.16;5018391;28;21842;-73
2023/12/03 01:36:37;;;;;;;44.67;42.47;;;;;;;4.01;64.42;101849.88;5027445;28;20361;-74
2023/12/03 01:39:05;;;;;;;47.42;44.97;;;;;;;4.00;64.22;101846.34;5015903;28;20080;-74
2023/12/03 01:41:30;;;;;;;47.90;45.38;;;;;;;4.01;64.27;101840.00;5027511;28;20095;-73
2023/12/03 01:43:56;;;;;;;51.00;47.22;;;;;;;4.00;64.41;101837.50;5022384;28;20436;-76
2023/12/03 01:46:21;;;;;;;47.00;44.80;;;;;;;4.01;64.26;101842.66;5011449;28;20068;-72
2023/12/03 01:48:48;;;;;;;46.35;44.15;;;;;;;4.02;64.29;101840.81;5033291;28;20041;-73
2023/12/03 01:51:14;;;;;;;46.83;44.33;;;;;;;4.02;64.26;101840.81;5032408;28;20037;-75
2023/12/03 01:53:41;;;;;;;45.10;42.88;;;;;;;4.03;64.18;101845.16;5031542;28;20048;-74
2023/12/03 01:56:08;;;;;;;45.58;43.17;;;;;;;4.03;64.15;101847.81;5032920;28;20045;-74
2023/12/03 01:58:34;;;;;;;43.30;41.20;;;;;;;4.02;64.37;101838.97;5030785;28;20441;-74
2023/12/03 02:00:59;;;;;;;50.13;47.25;;;;;;;4.02;64.54;101841.66;5031226;28;20061;-73
2023/12/03 02:03:25;;;;;;;49.50;46.85;;;;;;;4.03;64.10;101859.38;5027479;28;20050;-72
2023/12/03 02:06:10;;;;;;;50.38;47.42;;;;;;;4.03;64.58;101855.84;5014997;28;20037;-73
2023/12/03 02:08:36;;;;;;;45.50;43.30;;;;;;;4.02;64.25;101857.69;5031033;28;20042;-73
2023/12/03 02:11:04;;;;;;;52.47;49.78;;;;;;;4.01;64.50;101856.03;5018986;28;20022;-73
2023/12/03 02:13:33;;;;;;;46.00;43.60;;;;;;;4.04;64.37;101860.22;5024562;28;20140;-73
2023/12/03 02:15:58;;;;;;;48.80;46.40;;;;;;;4.03;64.60;101856.72;5025931;28;20034;-78
2023/12/03 02:18:25;;;;;;;43.80;41.25;;;;;;;4.03;64.44;101847.81;5031160;28;20042;-73
2023/12/03 02:20:50;;;;;;;47.25;44.95;;;;;;;4.03;64.41;101850.50;5034188;28;20548;-73
2023/12/03 02:23:16;;;;;;;47.20;44.13;;;;;;;4.04;64.57;101849.50;5010642;28;20121;-74
2023/12/03 02:25:41;;;;;;;44.60;42.15;;;;;;;4.04;64.20;101847.66;5018394;28;20026;-73
2023/12/03 02:28:07;;;;;;;56.10;52.03;;;;;;;4.04;64.30;101850.34;5011949;28;20466;-73
2023/12/03 02:30:33;;;;;;;49.40;47.10;;;;;;;4.05;64.33;101852.00;5020131;28;20045;-73
2023/12/03 02:32:58;;;;;;;50.85;47.90;;;;;;;4.05;64.26;101856.50;5020668;28;20361;-78
2023/12/03 02:35:23;;;;;;;46.50;44.05;;;;;;;4.05;64.40;101862.69;5030483;28;20041;-73
2023/12/03 02:37:49;;;;;;;43.17;40.85;;;;;;;4.05;64.21;101857.34;5030709;28;20030;-73
2023/12/03 02:40:15;;;;;;;47.35;44.70;;;;;;;4.04;64.24;101850.34;5027888;28;20033;-73
2023/12/03 02:42:40;;;;;;;44.53;42.30;;;;;;;4.05;64.57;101857.34;5023224;28;20037;-75
2023/12/03 02:45:08;;;;;;;54.08;51.13;;;;;;;4.05;64.18;101854.66;5028930;28;20496;-73
2023/12/03 02:47:33;;;;;;;48.13;45.72;;;;;;;4.05;64.53;101861.88;5026287;28;20044;-74
2023/12/03 02:49:59;;;;;;;46.83;44.42;;;;;;;4.03;64.58;101856.72;5024698;28;20482;-73
2023/12/03 02:52:24;;;;;;;45.22;42.92;;;;;;;4.04;64.23;101854.88;5023719;28;20040;-74
2023/12/03 02:54:49;;;;;;;45.85;43.65;;;;;;;4.05;64.43;101856.50;5032973;28;20033;-73
2023/12/03 02:57:15;;;;;;;46.85;44.35;;;;;;;4.05;64.38;101854.66;5026758;28;20075;-75
2023/12/03 02:59:40;;;;;;;41.58;39.58;;;;;;;4.05;64.44;101862.69;5013701;28;20486;-73
2023/12/03 03:02:05;;;;;;;45.28;42.97;;;;;;;4.06;64.18;101861.69;5015573;28;20156;-73
2023/12/03 03:04:31;;;;;;;51.10;48.40;;;;;;;4.06;64.29;101866.22;5027263;28;20053;-74
2023/12/03 03:06:56;;;;;;;50.25;47.88;;;;;;;4.06;64.36;101863.56;5030817;28;20038;-73
2023/12/03 03:09:22;;;;;;;48.40;45.90;;;;;;;4.06;64.66;101859.03;5029070;28;20405;-73
2023/12/03 03:11:47;;;;;;;50.65;47.53;;;;;;;4.06;64.35;101860.88;5027597;28;20061;-75
2023/12/03 03:14:13;;;;;;;49.60;46.72;;;;;;;4.06;64.24;101863.56;5029310;28;20488;-73
2023/12/03 03:16:38;;;;;;;46.55;43.95;;;;;;;4.08;64.58;101856.16;5029889;28;20345;-73
2023/12/03 03:19:07;;;;;;;47.05;44.85;;;;;;;4.08;64.35;101865.03;5024355;28;20065;-73
2023/12/03 03:21:38;;;;;;;47.45;45.13;;;;;;;4.09;64.21;101856.00;5016185;28;20041;-73
2023/12/03 03:24:04;;;;;;;45.80;43.70;;;;;;;4.10;64.20;101856.84;5033075;28;20045;-73
2023/12/03 03:26:29;;;;;;;48.10;45.80;;;;;;;4.09;64.20;101850.66;5029764;28;20039;-73
2023/12/03 03:28:54;;;;;;;53.03;50.55;;;;;;;4.11;64.23;101851.31;5030026;28;20030;-74
2023/12/03 03:31:20;;;;;;;49.20;46.53;;;;;;;4.10;64.23;101851.47;5030421;28;20401;-74
2023/12/03 03:33:45;;;;;;;54.40;51.63;;;;;;;4.10;64.16;101851.47;5037366;28;20121;-75
2023/12/03 03:36:13;;;;;;;48.47;46.00;;;;;;;4.10;64.38;101855.00;5026079;28;20057;-73
2023/12/03 03:38:39;;;;;;;45.50;43.28;;;;;;;4.11;64.42;101863.88;5026581;28;20028;-72
2023/12/03 03:41:05;;;;;;;49.72;47.35;;;;;;;4.10;64.22;101855.00;5022159;28;20552;-74
2023/12/03 03:43:30;;;;;;;48.95;46.13;;;;;;;4.10;64.29;101854.16;5029291;28;20076;-74
2023/12/03 03:45:57;;;;;;;47.47;44.88;;;;;;;4.10;64.25;101852.31;5027192;28;20685;-72
2023/12/03 03:48:22;;;;;;;48.58;46.08;;;;;;;4.10;64.37;101855.00;5026187;28;20030;-73
2023/12/03 03:50:48;;;;;;;49.25;46.00;;;;;;;4.10;64.18;101856.84;5018439;28;20048;-73
2023/12/03 03:53:13;;;;;;;49.10;46.58;;;;;;;4.09;64.34;101863.19;5024884;28;20042;-73
2023/12/03 03:55:39;;;;;;;51.45;48.90;;;;;;;4.09;64.34;101858.69;5034925;28;20037;-72
2023/12/03 03:58:04;;;;;;;50.92;48.30;;;;;;;4.10;64.12;101863.00;5031684;28;20033;-73
2023/12/03 04:00:30;;;;;;;45.83;43.63;;;;;;;4.08;64.31;101859.69;5025670;28;20029;-74
2023/12/03 04:02:56;;;;;;;46.53;43.75;;;;;;;4.07;64.27;101865.22;5014311;28;20058;-73
2023/12/03 04:05:22;;;;;;;47.72;45.20;;;;;;;4.08;64.51;101867.72;5019201;28;20046;-73
2023/12/03 04:07:47;;;;;;;48.78;46.38;;;;;;;4.09;64.31;101873.91;5023976;28;20453;-73
2023/12/03 04:10:12;;;;;;;50.10;47.67;;;;;;;4.08;64.32;101865.03;5029779;28;20112;-73
2023/12/03 04:12:38;;;;;;;51.03;48.65;;;;;;;4.08;64.35;101867.72;5027352;28;20083;-74
2023/12/03 04:15:05;;;;;;;46.65;44.50;;;;;;;4.07;64.28;101870.56;5014115;28;20049;-73
2023/12/03 04:17:31;;;;;;;48.17;45.88;;;;;;;4.06;64.10;101869.72;5030270;28;20036;-73
2023/12/03 04:19:56;;;;;;;53.60;50.70;;;;;;;4.06;64.53;101866.22;5016331;28;20108;-72
2023/12/03 04:22:23;;;;;;;52.97;50.35;;;;;;;4.06;64.21;101869.72;5013752;28;20034;-73
2023/12/03 04:24:48;;;;;;;46.13;44.00;;;;;;;4.07;64.38;101875.91;5055923;28;20038;-73
2023/12/03 04:27:14;;;;;;;49.00;46.58;;;;;;;4.07;64.12;101870.56;5024784;28;20037;-73
2023/12/03 04:29:39;;;;;;;45.72;43.63;;;;;;;4.07;64.34;101866.03;5024136;28;20038;-73
2023/12/03 04:32:05;;;;;;;44.67;42.25;;;;;;;4.06;64.17;101869.72;5013713;28;20043;-72
2023/12/03 04:34:31;;;;;;;48.10;45.72;;;;;;;4.08;64.06;101877.56;5028240;28;20128;-74
2023/12/03 04:36:56;;;;;;;46.58;44.42;;;;;;;4.07;64.29;101871.38;5012911;28;20039;-73
2023/12/03 04:39:21;;;;;;;48.08;45.67;;;;;;;4.08;63.90;101872.22;5012704;28;20379;-73
2023/12/03 04:41:47;;;;;;;47.63;45.38;;;;;;;4.07;63.93;101881.25;5030682;28;20071;-73
2023/12/03 04:44:12;;;;;;;47.90;45.08;;;;;;;4.07;64.27;101870.56;5023747;28;20478;-74
2023/12/03 04:46:44;;;;;;;48.13;45.67;;;;;;;4.08;63.91;101877.56;5025405;28;20045;-73
2023/12/03 04:49:09;;;;;;;51.83;49.28;;;;;;;4.07;64.20;101870.56;5018166;28;20033;-74
2023/12/03 04:51:34;;;;;;;45.13;42.97;;;;;;;4.05;64.12;101878.72;5023534;28;20043;-75
2023/12/03 04:54:00;;;;;;;44.22;42.03;;;;;;;4.06;64.02;101880.41;5016611;28;20056;-73
2023/12/03 04:56:26;;;;;;;52.63;49.97;;;;;;;4.06;64.20;101885.78;5027432;28;20070;-73
2023/12/03 04:58:51;;;;;;;50.97;48.25;;;;;;;4.05;64.26;101881.41;5027157;28;20029;-74
2023/12/03 05:01:19;;;;;;;50.03;47.55;;;;;;;4.05;63.95;101883.25;5019568;28;20037;-77
2023/12/03 05:03:45;;;;;;;48.42;45.85;;;;;;;4.04;64.12;101882.44;5031054;28;20045;-75
2023/12/03 05:06:11;;;;;;;44.80;42.70;;;;;;;4.03;64.27;101875.41;5020826;28;20034;-74
2023/12/03 05:08:37;;;;;;;49.20;46.70;;;;;;;4.04;63.93;101889.63;5027784;28;20029;-74
2023/12/03 05:11:06;;;;;;;51.70;49.08;;;;;;;4.04;63.92;101884.28;5028502;28;20042;-73
2023/12/03 05:13:35;;;;;;;;;;;;;;;4.02;64.13;101880.94;5030007;28;20037;-74
2023/12/03 05:16:01;;;;;;;45.28;42.97;;;;;;;4.00;64.06;101878.41;5055649;28;20429;-74
2023/12/03 05:18:26;;;;;;;43.45;41.25;;;;;;;3.99;63.79;101881.28;5029538;28;20022;-73
2023/12/03 05:20:52;;;;;;;44.92;42.83;;;;;;;3.98;64.00;101891.16;5030326;28;20035;-73
2023/12/03 05:23:17;;;;;;;49.42;47.05;;;;;;;3.98;63.98;101890.28;5026049;28;20088;-76
2023/12/03 05:25:43;;;;;;;50.50;47.83;;;;;;;3.96;63.92;101879.78;5014036;28;20419;-73
2023/12/03 05:28:08;;;;;;;51.15;48.75;;;;;;;3.97;64.04;101880.63;5027081;28;20033;-74
2023/12/03 05:30:34;;;;;;;47.92;45.10;;;;;;;3.97;64.04;101883.28;5030759;28;20053;-73
2023/12/03 05:32:59;;;;;;;49.63;47.33;;;;;;;3.96;64.10;101879.78;5032798;28;20387;-73
2023/12/03 05:35:25;;;;;;;46.03;43.55;;;;;;;3.96;64.04;101893.16;5033552;28;20108;-72
2023/12/03 05:37:51;;;;;;;45.28;43.17;;;;;;;3.96;64.21;101878.97;5016246;28;20449;-73
2023/12/03 05:40:16;;;;;;;42.90;40.50;;;;;;;3.96;63.93;101884.31;5027633;28;20052;-72
2023/12/03 05:42:41;;;;;;;48.83;46.42;;;;;;;3.96;64.06;101886.97;5032433;28;20041;-72
2023/12/03 05:45:08;;;;;;;51.67;49.17;;;;;;;3.95;64.15;101885.28;5033482;28;20069;-72
2023/12/03 05:47:34;;;;;;;50.63;47.90;;;;;;;3.94;64.28;101892.47;5020599;28;20030;-73
2023/12/03 05:50:01;;;;;;;46.45;43.95;;;;;;;3.94;63.88;101900.50;5014278;28;20057;-73
2023/12/03 05:52:27;;;;;;;48.30;45.58;;;;;;;3.92;63.86;101890.97;5028384;28;20060;-74
2023/12/03 05:54:52;;;;;;;47.60;45.30;;;;;;;3.93;63.99;101897.97;5016353;28;20037;-73
2023/12/03 05:57:18;;;;;;;46.80;44.40;;;;;;;3.92;63.83;101899.84;5015562;28;20033;-72
2023/12/03 05:59:43;;;;;;;50.40;47.70;;;;;;;3.92;64.18;101913.19;5032254;28;20096;-73
2023/12/03 06:02:08;;;;;;;50.67;48.28;;;;;;;3.92;63.73;101909.69;5031725;28;20040;-73
2023/12/03 06:04:34;;;;;;;49.13;46.58;;;;;;;3.90;63.64;101909.84;5030641;28;20076;-73
2023/12/03 06:06:59;;;;;;;50.78;47.42;;;;;;;3.90;64.16;101916.03;5018509;28;20597;-75
2023/12/03 06:09:25;;;;;;;48.58;46.17;;;;;;;3.88;63.74;101923.41;5015651;28;20041;-73
2023/12/03 06:11:50;;;;;;;51.80;48.65;;;;;;;3.86;64.03;101930.75;5024019;28;20512;-73
2023/12/03 06:14:16;;;;;;;49.40;46.95;;;;;;;3.86;63.82;101933.44;5014661;28;20044;-72
2023/12/03 06:16:41;;;;;;;46.20;43.90;;;;;;;3.84;63.91;101927.41;5019945;28;20509;-74
2023/12/03 06:19:06;;;;;;;47.42;45.15;;;;;;;3.82;63.75;101918.72;5032390;28;20048;-72
2023/12/03 06:21:32;;;;;;;51.15;48.05;;;;;;;3.81;64.09;101922.41;5008451;28;20428;-73
2023/12/03 06:23:57;;;;;;;46.67;44.38;;;;;;;3.81;63.89;101924.25;5032155;28;20050;-73
2023/12/03 06:26:23;;;;;;;46.50;44.10;;;;;;;3.81;63.83;101913.56;5032665;28;20041;-77
2023/12/03 06:28:48;;;;;;;49.65;46.42;;;;;;;3.80;63.93;101910.03;5032071;28;20033;-73
2023/12/03 06:31:14;;;;;;;42.33;40.28;;;;;;;3.80;63.73;101912.69;5030518;28;20045;-72
2023/12/03 06:33:40;;;;;;;49.88;47.30;;;;;;;3.79;63.79;101908.38;5020656;28;20048;-73
2023/12/03 06:36:06;;;;;;;48.58;46.05;;;;;;;3.79;64.16;101904.88;5027606;28;20042;-73
2023/12/03 06:38:31;;;;;;;46.25;43.92;;;;;;;3.79;63.69;101908.38;5024187;28;20038;-73
2023/12/03 06:40:57;;;;;;;42.92;40.85;;;;;;;3.78;63.82;101904.03;5014244;28;20036;-73
2023/12/03 06:43:22;;;;;;;42.03;40.03;;;;;;;3.78;64.02;101905.84;5032705;28;20033;-73
2023/12/03 06:45:47;;;;;;;41.75;39.50;;;;;;;3.75;63.63;101898.19;5027592;28;20048;-73
2023/12/03 06:48:13;;;;;;;53.72;50.67;;;;;;;3.74;63.96;101894.69;5018076;28;20371;-74
2023/12/03 06:50:38;;;;;;;46.70;43.92;;;;;;;3.73;63.96;101895.69;5030692;28;20054;-74
2023/12/03 06:53:04;;;;;;;41.08;39.10;;;;;;;3.72;64.05;101888.66;5018299;28;20049;-73
2023/12/03 06:55:29;;;;;;;46.70;44.38;;;;;;;3.72;63.81;101894.00;5011587;28;20378;-74
2023/12/03 06:57:55;;;;;;;47.78;45.55;;;;;;;3.73;63.93;101901.03;5024809;28;20037;-72
2023/12/03 07:00:23;;;;;;;54.10;50.70;;;;;;;3.72;63.93;101894.00;5019713;28;20045;-73
2023/12/03 07:02:48;;;;;;;51.88;49.33;;;;;;;3.73;63.76;101903.72;5018816;28;20276;-73
2023/12/03 07:05:14;;;;;;;46.47;44.28;;;;;;;3.73;63.60;101898.38;5023765;28;20498;-73
2023/12/03 07:07:39;;;;;;;51.00;47.50;;;;;;;3.73;63.58;101902.84;5013044;28;20049;-72
2023/12/03 07:10:06;;;;;;;44.47;42.35;;;;;;;3.72;63.73;101903.88;5020007;28;20033;-73
2023/12/03 07:12:31;;;;;;;42.22;40.15;;;;;;;3.71;63.56;101905.72;5021321;28;20051;-74
2023/12/03 07:14:57;;;;;;;45.67;43.45;;;;;;;3.71;64.01;101899.53;5015922;28;20034;-73
2023/12/03 07:17:22;;;;;;;48.30;46.00;;;;;;;3.69;63.91;101911.22;5013417;28;20404;-73
2023/12/03 07:19:47;;;;;;;50.55;47.88;;;;;;;3.68;64.00;101909.56;5012424;28;20543;-72
2023/12/03 07:22:13;;;;;;;46.50;44.20;;;;;;;3.68;63.72;101919.41;5031349;28;20171;-73
2023/12/03 07:24:39;;;;;;;51.28;48.72;;;;;;;3.68;63.78;101911.41;5029292;28;20486;-74
2023/12/03 07:27:05;;;;;;;44.70;42.50;;;;;;;3.67;63.99;101920.41;5026013;28;20042;-73
2023/12/03 07:29:31;;;;;;;46.75;44.53;;;;;;;3.67;63.97;101917.72;5000421;28;20045;-75
2023/12/03 07:31:56;;;;;;;46.10;43.78;;;;;;;3.66;64.08;101919.59;5021527;28;20021;-73
2023/12/03 07:34:22;;;;;;;45.88;43.35;;;;;;;3.66;63.82;101916.91;5013831;28;20037;-73
2023/12/03 07:36:47;;;;;;;46.63;44.22;;;;;;;3.66;63.87;101916.09;4993968;28;20653;-74
2023/12/03 07:39:13;;;;;;;47.15;44.95;;;;;;;3.63;63.79;101917.25;5019828;28;20041;-73
2023/12/03 07:41:38;;;;;;;47.17;44.85;;;;;;;3.64;63.71;101910.91;5029899;28;20099;-75
2023/12/03 07:44:04;;;;;;;46.67;44.38;;;;;;;3.64;63.75;101918.91;5027578;28;20037;-73
2023/12/03 07:46:30;;;;;;;46.40;44.20;;;;;;;3.63;63.94;101914.56;5030424;28;20037;-72
2023/12/03 07:48:56;;;;;;;45.08;42.88;;;;;;;3.62;63.92;101923.56;5031164;28;20037;-73
2023/12/03 07:51:21;;;;;;;44.25;42.05;;;;;;;3.61;63.75;101927.25;5013115;28;20062;-72
2023/12/03 07:53:47;;;;;;;49.42;46.78;;;;;;;3.62;63.61;101918.22;5026274;28;20029;-72
2023/12/03 07:56:13;;;;;;;45.70;43.53;;;;;;;3.61;63.92;101929.94;5030482;28;20045;-73
2023/12/03 07:58:38;;;;;;;49.55;46.83;;;;;;;3.60;64.02;101928.28;5027824;28;20133;-74
2023/12/03 08:01:05;;;;;;;48.03;45.72;;;;;;;3.61;63.83;101935.28;5031682;28;20045;-73
2023/12/03 08:03:30;;;;;;;42.65;40.55;;;;;;;3.60;63.67;101938.97;5030142;28;20451;-72
2023/12/03 08:05:56;;;;;;;47.15;44.85;;;;;;;3.59;63.83;101947.97;5025180;28;20037;-72
2023/12/03 08:08:21;;;;;;;47.70;44.92;;;;;;;3.58;63.80;101951.66;5023336;28;20079;-73
2023/12/03 08:10:46;;;;;;;52.58;49.97;;;;;;;3.57;64.04;101947.28;5012120;28;20025;-74
2023/12/03 08:13:12;;;;;;;51.90;49.13;;;;;;;3.56;63.68;101950.16;5022423;28;20033;-76
2023/12/03 08:15:37;;;;;;;47.25;44.72;;;;;;;3.56;63.66;101955.50;5027030;28;20087;-74
2023/12/03 08:18:03;;;;;;;42.30;40.28;;;;;;;3.57;63.79;101957.16;5021495;28;20088;-72
2023/12/03 08:20:29;;;;;;;49.35;46.65;;;;;;;3.56;63.57;101952.81;5030131;28;20025;-73
2023/12/03 08:22:54;;;;;;;46.78;44.22;;;;;;;3.53;63.82;101945.97;5026815;28;20175;-73
2023/12/03 08:25:20;;;;;;;45.42;43.22;;;;;;;3.53;63.64;101943.31;5011190;28;20030;-74
2023/12/03 08:27:46;;;;;;;46.13;43.63;;;;;;;3.54;64.00;101949.47;5008667;28;20041;-73
2023/12/03 08:30:11;;;;;;;44.92;42.42;;;;;;;3.53;63.75;101945.97;5025979;28;20033;-74
2023/12/03 08:32:37;;;;;;;46.35;44.03;;;;;;;3.54;63.97;101949.47;5013385;28;20125;-74
2023/12/03 08:35:02;;;;;;;51.65;48.72;;;;;;;3.52;63.73;101946.13;5026996;28;20083;-73
2023/12/03 08:37:28;;;;;;;47.47;44.97;;;;;;;3.52;64.03;101954.16;5024726;28;20033;-74
2023/12/03 08:39:54;;;;;;;50.70;47.55;;;;;;;3.51;63.52;101958.66;5016899;28;20053;-73
2023/12/03 08:42:19;;;;;;;47.50;45.13;;;;;;;3.50;63.50;101956.97;5029261;28;20037;-73
2023/12/03 08:44:45;;;;;;;44.65;42.35;;;;;;;3.51;63.53;101963.16;5027753;28;20401;-75
2023/12/03 08:47:11;;;;;;;47.10;44.42;;;;;;;3.52;63.70;101964.84;5028513;28;20112;-75
2023/12/03 08:49:36;;;;;;;52.92;49.05;;;;;;;3.51;63.83;101963.16;5028994;28;20033;-77
2023/12/03 08:52:02;;;;;;;49.60;47.08;;;;;;;3.50;63.92;101962.31;5021324;28;20061;-76
2023/12/03 08:54:27;;;;;;;50.63;47.95;;;;;;;3.50;63.66;101973.00;5029555;28;20060;-74
2023/12/03 08:56:53;;;;;;;50.75;48.10;;;;;;;3.50;63.87;101972.16;5012399;28;20025;-73
2023/12/03 08:59:19;;;;;;;45.38;43.08;;;;;;;3.50;63.56;101966.81;5026103;28;20042;-73
2023/12/03 09:01:45;;;;;;;45.90;43.35;;;;;;;3.49;63.67;101971.34;5018200;28;20087;-75
2023/12/03 09:04:13;;;;;;;51.28;47.90;;;;;;;3.47;63.47;101970.66;5021690;28;20057;-76
2023/12/03 09:06:39;;;;;;;49.42;47.03;;;;;;;3.49;63.84;101974.00;5010461;28;20608;-76
2023/12/03 09:09:05;;;;;;;46.55;43.90;;;;;;;3.47;63.80;101974.16;5017914;28;20043;-74
2023/12/03 09:11:31;;;;;;;45.10;42.35;;;;;;;3.46;63.91;101969.84;5027843;28;20040;-74
2023/12/03 09:13:56;;;;;;;45.00;42.50;;;;;;;3.46;63.61;101964.50;5022342;28;20042;-75
2023/12/03 09:16:22;;;;;;;46.00;43.75;;;;;;;3.43;63.58;101951.47;5010102;28;20038;-74
2023/12/03 09:18:47;;;;;;;53.28;49.38;;;;;;;3.45;63.55;101965.50;4994240;28;20489;-75
2023/12/03 09:21:13;;;;;;;45.38;43.17;;;;;;;3.45;63.72;101968.19;5023949;28;20112;-73
2023/12/03 09:23:39;;;;;;;46.05;43.75;;;;;;;3.45;63.83;101964.66;5017014;28;20045;-74
2023/12/03 09:26:05;;;;;;;48.70;46.08;;;;;;;3.44;63.44;101961.16;5010842;28;20485;-75
2023/12/03 09:28:32;;;;;;;43.30;41.08;;;;;;;3.43;63.44;101959.50;5026347;28;20037;-75
2023/12/03 09:30:58;;;;;;;48.90;46.25;;;;;;;3.43;63.42;101951.47;5024672;28;20029;-74
2023/12/03 09:33:26;;;;;;;46.10;43.35;;;;;;;3.43;63.54;101942.63;5028678;28;20026;-72
2023/12/03 09:35:51;;;;;;;44.95;42.78;;;;;;;3.42;63.42;101948.97;5029317;28;20034;-72
2023/12/03 09:38:17;;;;;;;45.63;43.47;;;;;;;3.42;63.85;101940.94;5028635;28;20029;-72
2023/12/03 09:40:44;;;;;;;46.40;44.00;;;;;;;3.43;63.74;101938.13;5010313;28;20065;-75
2023/12/03 09:43:10;;;;;;;43.63;41.20;;;;;;;3.42;63.53;101936.44;5029738;28;20030;-73
2023/12/03 09:45:37;;;;;;;50.95;48.33;;;;;;;3.42;63.88;101940.94;5020994;28;20095;-73
2023/12/03 09:48:04;;;;;;;47.70;45.00;;;;;;;3.42;63.76;101936.44;5028002;28;20118;-71
2023/12/03 09:50:33;;;;;;;46.08;43.90;;;;;;;3.42;63.50;101935.59;5028549;28;20034;-72
2023/12/03 09:53:02;;;;;;;48.08;45.25;;;;;;;3.42;63.77;101935.59;5020879;28;20033;-73
2023/12/03 09:55:28;;;;;;;56.38;48.95;;;;;;;3.42;63.80;101935.59;5022505;28;20041;-73
2023/12/03 09:57:55;;;;;;;42.22;39.88;;;;;;;3.43;63.63;101942.63;5022347;28;20512;-72
2023/12/03 10:00:22;;;;;;;44.22;42.03;;;;;;;3.42;63.87;101941.78;5020621;28;20030;-72
2023/12/03 10:02:51;;;;;;;46.17;43.78;;;;;;;3.43;63.53;101946.13;5010707;28;20497;-73
2023/12/03 10:05:16;;;;;;;;;;;;;;;3.43;63.78;101938.13;5023643;28;20092;-72
2023/12/03 10:07:45;;;;;;;35.70;34.05;;;;;;;3.41;63.93;101929.44;5031293;28;19957;-72
2023/12/03 10:10:11;;;;;;;42.22;40.13;;;;;;;3.40;63.72;101940.28;5016853;28;20037;-72
2023/12/03 10:12:41;;;;;;;42.72;40.28;;;;;;;3.39;63.82;101939.44;5032167;28;20477;-73
2023/12/03 10:15:08;;;;;;;42.85;40.50;;;;;;;3.38;63.59;101939.63;5017659;28;20101;-72
2023/12/03 10:17:34;;;;;;;40.42;38.17;;;;;;;3.38;63.57;101934.28;5029019;28;20038;-72
2023/12/03 10:20:18;;;;;;;45.97;43.47;;;;;;;3.37;63.59;101937.94;5021612;28;20426;-72
2023/12/03 10:22:43;;;;;;;42.55;40.45;;;;;;;3.36;63.84;101931.78;5035797;28;20033;-73
2023/12/03 10:25:09;;;;;;;42.72;40.53;;;;;;;3.37;63.76;101925.41;5023236;28;21224;-74
2023/12/03 10:27:35;;;;;;;43.08;40.63;;;;;;;3.38;63.78;101923.59;5028083;28;20041;-73
2023/12/03 10:30:01;;;;;;;48.55;45.63;;;;;;;3.37;64.00;101920.06;5023597;28;20113;-75
2023/12/03 10:32:27;;;;;;;51.92;48.58;;;;;;;3.36;64.12;101913.06;5031031;28;20537;-73
2023/12/03 10:34:54;;;;;;;46.33;43.78;;;;;;;3.37;63.72;101916.56;5029858;28;20041;-71
2023/12/03 10:37:19;;;;;;;46.58;44.17;;;;;;;3.37;63.74;101911.22;5012471;28;20073;-71
2023/12/03 10:39:46;;;;;;;43.15;40.75;;;;;;;3.37;63.90;101903.22;5025298;28;20600;-72
2023/12/03 10:42:11;;;;;;;44.42;41.97;;;;;;;3.38;63.63;101907.56;5028398;28;20456;-73
2023/12/03 10:44:40;;;;;;;44.88;42.35;;;;;;;3.37;63.79;101904.03;5029883;28;20059;-71
2023/12/03 10:47:07;;;;;;;45.80;42.92;;;;;;;3.38;63.63;101892.38;5028766;28;20073;-72
2023/12/03 10:49:33;;;;;;;50.50;47.67;;;;;;;3.39;63.26;101899.38;5024183;28;20042;-71
2023/12/03 10:51:59;;;;;;;47.08;44.67;;;;;;;3.39;63.63;101893.22;5011286;28;20030;-72
2023/12/03 10:54:25;;;;;;;51.97;49.05;;;;;;;3.40;63.61;101895.72;5012514;28;20111;-72
2023/12/03 10:56:54;;;;;;;43.42;41.08;;;;;;;3.41;63.94;101900.06;5010793;28;20470;-71
2023/12/03 10:59:28;;;;;;;46.88;44.15;;;;;;;3.41;63.85;101876.00;5022024;28;20121;-73
2023/12/03 11:01:57;;;;;;;47.40;44.05;;;;;;;3.41;63.93;101878.69;5023355;28;20458;-72
2023/12/03 11:04:42;;;;;;;46.45;43.65;;;;;;;3.42;63.42;101880.34;5018948;28;20164;-72
2023/12/03 11:07:13;;;;;;;49.28;46.47;;;;;;;3.43;63.82;101862.50;5016967;28;20933;-74
2023/12/03 11:09:40;;;;;;;45.35;43.03;;;;;;;3.43;63.57;101871.34;5021156;28;20033;-72
2023/12/03 11:12:07;;;;;;;48.65;45.55;;;;;;;3.43;63.51;101870.50;5032006;28;20065;-72